Time;durP1;ratioP1;P1;durP2;ratioP2;P2;SDS_P1;SDS_P2;PMS_P1;PMS_P2;Temp;Humidity;BMP_temperature;BMP_pressure;BME280_temperature;BME280_humidity;BME280_pressure;Samples;Min_cycle;Max_cycle;Signal;HPM_P1;HPM_P2
2021/03/07 00:00:30;;;;;;;14.25;7.45;;;;;;;1.01;72.23;100579.84;252295;1105;115650;-68
2021/03/07 00:05:43;;;;;;;12.05;7.10;;;;;;;1.04;71.78;100583.14;252725;1104;114768;-68
2021/03/07 00:10:46;;;;;;;9.78;6.22;;;;;;;0.98;73.25;100593.27;251596;1105;115512;-67
2021/03/07 00:15:49;;;;;;;13.55;6.53;;;;;;;0.98;73.82;100588.02;252080;1105;114681;-67
2021/03/07 00:20:52;;;;;;;7.05;4.10;;;;;;;0.95;72.78;100588.33;253022;1104;114840;-68
2021/03/07 00:25:55;;;;;;;11.70;6.47;;;;;;;0.97;72.56;100572.42;252943;1105;115540;-67
2021/03/07 00:30:58;;;;;;;9.70;6.75;;;;;;;0.95;72.69;100553.38;252063;1105;114923;-67
2021/03/07 00:36:02;;;;;;;4.90;2.45;;;;;;;0.95;73.55;100562.08;252493;1105;115758;-67
2021/03/07 00:41:06;;;;;;;10.45;6.37;;;;;;;0.99;72.60;100552.09;252501;1105;115339;-67
2021/03/07 00:46:09;;;;;;;4.22;3.50;;;;;;;0.97;72.76;100536.49;252489;1105;116409;-67
2021/03/07 00:51:12;;;;;;;9.48;5.30;;;;;;;0.93;74.06;100527.27;253317;1105;116315;-65
2021/03/07 00:56:15;;;;;;;6.12;4.78;;;;;;;0.97;73.60;100527.80;253050;1105;115650;-65
2021/03/07 01:01:18;;;;;;;8.38;2.95;;;;;;;0.93;73.65;100516.77;252792;1105;117307;-65
2021/03/07 01:06:21;;;;;;;10.00;4.43;;;;;;;0.99;72.75;100516.16;253665;1104;115612;-68
2021/03/07 01:11:25;;;;;;;8.90;5.62;;;;;;;1.01;72.83;100493.21;254721;1105;116546;-68
2021/03/07 01:16:29;;;;;;;8.65;5.33;;;;;;;1.04;73.79;100493.88;254124;1105;116042;-68
2021/03/07 01:21:33;;;;;;;10.18;5.17;;;;;;;1.05;73.52;100477.98;253684;1105;115790;-67
2021/03/07 01:26:36;;;;;;;5.40;4.30;;;;;;;1.08;72.61;100472.41;254295;1105;116781;-66
2021/03/07 01:31:43;;;;;;;9.43;5.50;;;;;;;1.05;73.60;100471.90;255037;1104;115266;-67
2021/03/07 01:36:46;;;;;;;5.35;4.85;;;;;;;1.07;73.86;100462.06;254687;1104;114794;-67
2021/03/07 01:41:50;;;;;;;10.35;4.65;;;;;;;1.10;72.94;100459.95;254724;1105;116304;-67
2021/03/07 01:46:53;;;;;;;4.95;4.25;;;;;;;1.16;73.42;100453.27;254967;1105;115525;-67
2021/03/07 01:51:57;;;;;;;9.65;5.67;;;;;;;1.20;73.03;100439.67;254919;1105;114512;-67
2021/03/07 01:57:02;;;;;;;9.58;5.17;;;;;;;1.16;74.09;100432.26;254510;1105;114800;-67
2021/03/07 02:02:06;;;;;;;5.30;3.98;;;;;;;1.15;74.15;100425.36;253575;1105;115826;-67
2021/03/07 02:07:09;;;;;;;5.08;4.35;;;;;;;1.13;73.14;100422.89;253180;1105;115747;-67
2021/03/07 02:12:12;;;;;;;10.65;6.70;;;;;;;1.16;73.42;100416.50;253851;1105;115541;-67
2021/03/07 02:17:15;;;;;;;11.45;6.05;;;;;;;1.21;73.25;100404.55;252860;1105;116245;-66
2021/03/07 02:22:34;;;;;;;7.35;5.30;;;;;;;1.19;73.97;100405.69;252839;1105;115386;-67
2021/03/07 02:27:39;;;;;;;11.05;4.03;;;;;;;1.14;72.69;100403.53;252673;1105;115691;-68
2021/03/07 02:33:05;;;;;;;6.55;4.65;;;;;;;1.10;73.56;100386.44;252200;1105;115280;-67
2021/03/07 02:38:10;;;;;;;5.30;4.72;;;;;;;1.16;73.47;100388.44;251870;1105;115266;-67
2021/03/07 02:43:15;;;;;;;6.67;3.95;;;;;;;1.10;74.21;100369.86;251940;1105;115885;-68
2021/03/07 02:48:23;;;;;;;9.05;5.03;;;;;;;1.09;73.60;100370.84;252429;1105;115341;-68
2021/03/07 02:53:28;;;;;;;3.98;3.25;;;;;;;1.07;74.08;100349.17;252473;1105;115592;-68
2021/03/07 02:58:36;;;;;;;10.78;7.00;;;;;;;1.09;74.34;100342.78;252819;1104;115765;-67
2021/03/07 03:03:45;;;;;;;10.17;5.57;;;;;;;1.09;74.07;100334.08;252551;1105;116290;-67
2021/03/07 03:08:56;;;;;;;9.95;6.33;;;;;;;1.10;73.68;100320.80;253492;1105;116625;-68
2021/03/07 03:14:00;;;;;;;9.60;5.15;;;;;;;1.12;73.91;100321.46;253190;1105;115010;-66
2021/03/07 03:19:07;;;;;;;6.50;4.10;;;;;;;1.18;72.66;100330.52;251750;1105;115696;-66
2021/03/07 03:24:10;;;;;;;;;;;;;;;1.14;73.03;100324.75;253941;1104;117117;-66
2021/03/07 03:29:13;;;;;;;3.80;2.92;;;;;;;1.14;73.90;100308.17;254375;1105;104255;-66
2021/03/07 03:34:17;;;;;;;6.67;4.83;;;;;;;1.14;72.33;100313.43;254009;1105;137794;-66
2021/03/07 03:39:22;;;;;;;6.90;4.62;;;;;;;1.24;72.19;100300.95;254727;1105;115478;-66
2021/03/07 03:44:32;;;;;;;4.28;3.60;;;;;;;1.19;71.97;100309.34;254523;1104;115056;-65
2021/03/07 03:49:48;;;;;;;8.55;5.90;;;;;;;1.23;71.78;100292.26;254794;1104;116185;-66
2021/03/07 03:55:04;;;;;;;5.37;2.87;;;;;;;1.25;72.47;100287.67;254530;1105;114915;-66
2021/03/07 04:00:20;;;;;;;7.75;4.85;;;;;;;1.30;70.50;100288.02;254525;1105;116021;-66
2021/03/07 04:05:25;;;;;;;7.12;4.42;;;;;;;1.33;71.63;100292.13;253136;1105;117572;-66
2021/03/07 04:10:29;;;;;;;6.33;5.15;;;;;;;1.36;71.14;100273.42;252383;1105;115911;-66
2021/03/07 04:15:32;;;;;;;3.58;3.00;;;;;;;1.33;71.32;100271.11;253121;1105;117030;-66
2021/03/07 04:20:36;;;;;;;6.00;5.10;;;;;;;1.31;69.36;100286.20;253265;1105;116398;-66
2021/03/07 04:25:40;;;;;;;4.27;3.13;;;;;;;1.29;69.51;100260.11;251962;1105;115792;-66
2021/03/07 04:30:43;;;;;;;3.60;3.30;;;;;;;1.28;68.90;100263.72;252671;1105;115349;-66
2021/03/07 04:35:47;;;;;;;4.17;2.60;;;;;;;1.31;68.16;100252.89;252401;1104;116016;-68
2021/03/07 04:40:51;;;;;;;9.58;4.33;;;;;;;1.31;69.06;100254.69;251573;1105;115652;-68
2021/03/07 04:45:55;;;;;;;9.25;5.65;;;;;;;1.32;68.85;100270.29;252380;1104;116440;-65
2021/03/07 04:51:01;;;;;;;3.15;2.12;;;;;;;1.30;69.08;100255.67;252428;1105;118818;-65
2021/03/07 04:56:05;;;;;;;9.57;3.13;;;;;;;1.31;68.04;100252.06;252540;1105;115733;-65
2021/03/07 05:01:09;;;;;;;2.77;2.58;;;;;;;1.30;67.66;100261.75;252515;1105;115687;-67
2021/03/07 05:06:13;;;;;;;2.00;1.70;;;;;;;1.32;69.47;100254.53;252677;1105;116722;-66
2021/03/07 05:11:21;;;;;;;5.33;3.40;;;;;;;1.33;68.59;100256.17;252368;1104;115809;-66
2021/03/07 05:16:25;;;;;;;5.20;3.23;;;;;;;1.32;68.52;100249.28;252822;1105;115434;-66
2021/03/07 05:21:28;;;;;;;3.73;3.43;;;;;;;1.34;68.31;100246.49;252423;1105;115479;-66
2021/03/07 05:26:31;;;;;;;3.95;3.45;;;;;;;1.34;68.30;100244.69;252835;1105;115822;-66
2021/03/07 05:31:34;;;;;;;4.05;3.65;;;;;;;1.38;69.19;100239.11;252791;1104;115623;-65
2021/03/07 05:36:38;;;;;;;3.02;2.30;;;;;;;1.34;69.01;100242.06;251472;1105;117514;-69
2021/03/07 05:41:41;;;;;;;5.03;3.77;;;;;;;1.39;69.55;100232.88;254538;1105;115759;-65
2021/03/07 05:46:45;;;;;;;5.80;4.00;;;;;;;1.41;70.13;100217.77;255041;1105;114736;-66
2021/03/07 05:51:49;;;;;;;6.45;3.67;;;;;;;1.46;69.73;100225.98;254901;1104;114955;-64
2021/03/07 05:56:55;;;;;;;5.67;5.17;;;;;;;1.48;69.51;100226.65;253281;1105;116517;-65
2021/03/07 06:01:58;;;;;;;7.97;4.97;;;;;;;1.54;70.87;100216.28;254901;1104;115539;-66
2021/03/07 06:07:02;;;;;;;4.35;3.95;;;;;;;1.55;70.54;100230.23;254594;1105;114651;-67
2021/03/07 06:12:14;;;;;;;8.10;4.27;;;;;;;1.53;69.70;100217.27;252746;1105;115610;-64
2021/03/07 06:17:16;;;;;;;5.25;3.60;;;;;;;1.56;68.99;100221.37;252958;1105;115410;-67
2021/03/07 06:22:20;;;;;;;6.50;4.87;;;;;;;1.56;71.14;100214.31;252547;1105;127814;-65
2021/03/07 06:27:24;;;;;;;5.63;3.90;;;;;;;1.52;69.82;100210.40;252871;1105;137846;-66
2021/03/07 06:32:30;;;;;;;6.28;5.67;;;;;;;1.50;70.81;100206.29;251712;1105;115751;-67
2021/03/07 06:37:51;;;;;;;5.03;4.53;;;;;;;1.46;69.88;100208.42;253364;1104;114999;-64
2021/03/07 06:42:56;;;;;;;4.28;3.92;;;;;;;1.40;70.33;100198.56;252218;1105;115599;-66
2021/03/07 06:48:01;;;;;;;6.42;5.90;;;;;;;1.47;69.81;100215.31;251678;1105;115499;-68
2021/03/07 06:53:05;;;;;;;4.55;3.98;;;;;;;1.47;72.12;100207.44;251987;1105;116346;-67
2021/03/07 06:58:15;;;;;;;8.15;6.17;;;;;;;1.51;71.60;100205.30;252511;1105;116360;-63
2021/03/07 07:03:18;;;;;;;10.82;5.72;;;;;;;1.47;70.26;100199.55;252069;1105;116726;-63
2021/03/07 07:08:48;;;;;;;10.30;6.00;;;;;;;1.45;71.16;100201.52;251979;1105;116647;-66
2021/03/07 07:13:52;;;;;;;5.78;5.15;;;;;;;1.48;71.21;100200.38;252776;1104;115254;-66
2021/03/07 07:19:09;;;;;;;7.20;3.08;;;;;;;1.48;70.84;100195.95;254117;1105;115305;-65
2021/03/07 07:24:14;;;;;;;7.47;5.13;;;;;;;1.54;70.14;100184.75;254354;1104;116083;-65
2021/03/07 07:29:18;;;;;;;6.42;5.10;;;;;;;1.58;69.58;100193.95;253033;1105;115071;-65
2021/03/07 07:34:37;;;;;;;3.72;3.25;;;;;;;1.53;70.68;100180.48;253174;1104;115346;-66
2021/03/07 07:39:42;;;;;;;7.90;4.27;;;;;;;1.59;70.46;100161.43;252820;1105;115442;-66
2021/03/07 07:44:46;;;;;;;4.70;4.13;;;;;;;1.56;70.09;100156.50;252228;1105;115557;-66
2021/03/07 07:49:54;;;;;;;5.90;3.80;;;;;;;1.56;69.09;100155.68;253551;1105;114713;-65
2021/03/07 07:55:00;;;;;;;3.83;3.52;;;;;;;1.58;69.19;100148.45;254542;1105;115950;-63
2021/03/07 08:00:08;;;;;;;6.85;5.67;;;;;;;1.65;70.14;100154.70;253759;1104;115308;-67
2021/03/07 08:05:27;;;;;;;9.75;6.17;;;;;;;1.64;69.63;100159.13;254111;1105;115672;-68
2021/03/07 08:10:37;;;;;;;8.88;6.35;;;;;;;1.69;70.00;100154.20;254629;1105;115365;-66
2021/03/07 08:15:52;;;;;;;6.40;5.83;;;;;;;1.76;70.83;100143.02;254344;1105;115107;-68
2021/03/07 08:20:58;;;;;;;14.55;9.88;;;;;;;1.83;70.59;100141.38;254333;1104;115544;-69
2021/03/07 08:26:02;;;;;;;7.13;5.53;;;;;;;1.77;71.00;100148.11;252500;1105;115556;-68
2021/03/07 08:31:08;;;;;;;13.77;8.30;;;;;;;1.80;70.26;100146.95;251960;1105;115889;-65
2021/03/07 08:36:17;;;;;;;10.80;7.92;;;;;;;1.92;68.96;100145.59;252563;1105;115308;-71
2021/03/07 08:41:46;;;;;;;8.68;6.17;;;;;;;1.99;68.77;100142.13;252644;1104;115697;-66
2021/03/07 08:46:51;;;;;;;11.28;7.08;;;;;;;2.04;69.67;100128.48;252266;1104;114758;-66
2021/03/07 08:52:01;;;;;;;11.53;6.62;;;;;;;1.95;69.04;100117.16;253091;1105;115161;-64
2021/03/07 08:57:10;;;;;;;8.95;7.25;;;;;;;1.99;68.72;100115.02;253667;1105;115728;-67
2021/03/07 09:02:14;;;;;;;12.95;8.10;;;;;;;2.04;70.15;100107.44;252556;1105;116152;-66
2021/03/07 09:07:30;;;;;;;15.90;9.10;;;;;;;2.08;70.60;100103.48;254467;1105;115836;-66
2021/03/07 09:12:37;;;;;;;11.75;7.47;;;;;;;2.03;69.92;100106.62;252004;1105;116509;-65
2021/03/07 09:17:40;;;;;;;6.55;4.67;;;;;;;1.92;68.78;100104.35;252991;1105;137381;-65
2021/03/07 09:22:44;;;;;;;4.73;3.97;;;;;;;1.87;68.24;100106.66;252448;1105;115629;-65
2021/03/07 09:27:48;;;;;;;5.10;3.92;;;;;;;1.81;67.12;100096.85;253471;1105;115115;-66
2021/03/07 09:32:52;;;;;;;7.30;4.47;;;;;;;1.86;67.30;100098.95;252279;1105;115927;-66
2021/03/07 09:38:02;;;;;;;5.78;4.00;;;;;;;1.82;66.47;100097.67;251854;1105;116479;-66
2021/03/07 09:43:12;;;;;;;5.37;4.13;;;;;;;1.82;66.89;100097.67;253566;1105;139675;-65
2021/03/07 09:48:21;;;;;;;10.75;7.08;;;;;;;1.89;66.39;100098.61;253249;1105;115373;-65
2021/03/07 09:53:31;;;;;;;5.13;4.27;;;;;;;1.89;66.54;100090.72;253092;1105;115652;-64
2021/03/07 09:58:36;;;;;;;;;;;;;;;1.95;66.64;100090.05;254514;1104;115709;-65
2021/03/07 10:03:44;;;;;;;7.58;4.28;;;;;;;2.00;65.32;100085.10;255549;1105;103656;-64
2021/03/07 10:09:09;;;;;;;3.00;2.12;;;;;;;1.98;65.77;100092.34;254369;1105;115310;-66
2021/03/07 10:14:12;;;;;;;3.43;3.13;;;;;;;2.01;66.24;100081.48;254294;1104;114753;-68
2021/03/07 10:19:15;;;;;;;1.77;1.55;;;;;;;2.00;65.00;100087.73;254632;1104;114484;-68
2021/03/07 10:24:19;;;;;;;10.88;6.35;;;;;;;1.98;65.76;100082.64;254664;1105;115163;-68
2021/03/07 10:29:24;;;;;;;3.45;2.27;;;;;;;2.02;65.77;100083.95;254084;1105;116474;-69
2021/03/07 10:34:35;;;;;;;4.35;3.65;;;;;;;2.06;64.72;100088.87;253565;1105;114856;-68
2021/03/07 10:39:39;;;;;;;5.33;4.20;;;;;;;2.04;63.99;100070.63;253647;1104;115155;-69
2021/03/07 10:44:43;;;;;;;5.97;3.05;;;;;;;2.07;64.72;100080.81;251624;1105;115203;-68
2021/03/07 10:49:49;;;;;;;3.52;3.08;;;;;;;2.11;63.59;100082.11;253196;1105;115446;-68
2021/03/07 10:54:54;;;;;;;2.75;1.85;;;;;;;2.22;66.18;100073.00;251583;1105;115641;-68
2021/03/07 10:59:58;;;;;;;3.25;2.35;;;;;;;2.21;64.71;100074.80;251632;1104;116074;-68
2021/03/07 11:05:01;;;;;;;5.17;4.08;;;;;;;2.21;64.40;100061.66;251731;1105;116142;-67
2021/03/07 11:10:08;;;;;;;9.07;3.60;;;;;;;2.20;62.51;100052.12;252857;1105;114781;-68
2021/03/07 11:15:13;;;;;;;3.92;2.45;;;;;;;2.26;62.74;100056.70;252504;1105;115316;-67
2021/03/07 11:20:17;;;;;;;4.58;3.22;;;;;;;2.32;61.11;100063.91;252598;1105;115382;-68
2021/03/07 11:25:21;;;;;;;3.65;3.12;;;;;;;2.33;61.27;100048.94;252066;1105;115674;-68
2021/03/07 11:30:24;;;;;;;3.55;3.05;;;;;;;2.24;59.61;100029.75;251806;1104;115371;-67
2021/03/07 11:35:28;;;;;;;1.85;1.67;;;;;;;2.23;62.03;100048.33;252565;1105;115044;-67
2021/03/07 11:40:31;;;;;;;6.43;4.00;;;;;;;2.23;61.78;100056.22;251898;1105;115783;-66
2021/03/07 11:45:35;;;;;;;3.12;2.85;;;;;;;2.26;61.54;100026.95;253446;1105;115612;-64
2021/03/07 11:50:39;;;;;;;3.75;3.37;;;;;;;2.35;60.65;100012.75;253100;1104;115150;-65
2021/03/07 11:55:42;;;;;;;3.00;2.75;;;;;;;2.59;59.40;100006.48;253338;1105;117148;-67
2021/03/07 12:00:45;;;;;;;6.62;3.45;;;;;;;2.85;60.14;99996.39;253889;1104;116111;-68
2021/03/07 12:05:49;;;;;;;6.40;3.27;;;;;;;3.11;59.08;99995.16;252889;1104;114924;-68
2021/03/07 12:10:54;;;;;;;3.50;3.07;;;;;;;3.10;58.70;99982.98;251738;1105;206353;-68
2021/03/07 12:15:56;;;;;;;5.15;4.45;;;;;;;3.13;58.42;99985.27;253111;1105;117893;-67
2021/03/07 12:21:02;;;;;;;5.25;4.20;;;;;;;3.28;58.89;99978.20;254670;1105;115369;-68
2021/03/07 12:26:05;;;;;;;4.50;4.00;;;;;;;3.19;58.26;99966.92;253466;1104;116290;-68
2021/03/07 12:31:08;;;;;;;5.08;3.80;;;;;;;3.12;58.50;99965.19;253885;1104;114294;-67
2021/03/07 12:36:11;;;;;;;5.90;4.62;;;;;;;3.17;60.27;99954.93;253903;1104;115874;-67
2021/03/07 12:41:14;;;;;;;5.10;4.60;;;;;;;3.24;60.10;99958.48;254316;1104;114669;-68
2021/03/07 12:46:17;;;;;;;5.78;5.15;;;;;;;3.27;60.42;99952.85;252569;1105;115855;-68
2021/03/07 12:51:20;;;;;;;5.73;3.47;;;;;;;3.26;59.65;99954.67;251604;1105;114573;-66
2021/03/07 12:56:23;;;;;;;5.37;4.35;;;;;;;3.12;59.32;99944.12;253532;1105;114843;-67
2021/03/07 13:01:30;;;;;;;5.30;4.65;;;;;;;3.03;60.70;99938.96;252157;1105;115582;-66
2021/03/07 13:06:34;;;;;;;6.87;4.90;;;;;;;3.08;60.85;99938.39;251697;1105;115909;-67
2021/03/07 13:11:37;;;;;;;6.20;4.03;;;;;;;2.99;61.02;99939.50;252132;1104;115366;-67
2021/03/07 13:16:41;;;;;;;4.80;4.10;;;;;;;2.92;60.98;99925.41;252331;1105;115419;-67
2021/03/07 13:21:48;;;;;;;;;;;;;;;2.77;61.08;99932.45;252553;1105;115773;-67
2021/03/07 13:26:53;;;;;;;6.33;4.28;;;;;;;2.68;60.51;99921.22;253440;1104;104196;-66
2021/03/07 13:31:56;;;;;;;7.40;4.20;;;;;;;2.62;60.22;99912.22;252607;1105;115194;-67
2021/03/07 13:37:01;;;;;;;5.97;3.72;;;;;;;2.57;62.22;99914.56;252087;1105;114907;-67
2021/03/07 13:42:05;;;;;;;5.20;2.90;;;;;;;2.57;61.06;99919.00;252822;1105;115016;-65
2021/03/07 13:47:10;;;;;;;5.70;4.20;;;;;;;2.59;60.87;99911.75;252835;1105;114700;-67
2021/03/07 13:52:15;;;;;;;5.75;3.52;;;;;;;2.55;61.21;99889.42;251998;1104;114991;-67
2021/03/07 13:57:18;;;;;;;9.20;3.70;;;;;;;2.56;60.28;99893.69;253028;1105;115131;-65
2021/03/07 14:02:22;;;;;;;2.55;2.00;;;;;;;2.46;60.78;99891.30;253342;1105;114335;-65
2021/03/07 14:07:26;;;;;;;6.40;3.35;;;;;;;2.53;60.35;99878.25;251718;1105;114863;-64
2021/03/07 14:12:29;;;;;;;5.00;4.30;;;;;;;2.48;60.67;99877.97;253585;1105;115147;-69
2021/03/07 14:17:33;;;;;;;7.60;4.07;;;;;;;2.54;60.27;99871.99;252813;1105;115335;-66
2021/03/07 14:22:39;;;;;;;6.37;4.87;;;;;;;2.49;60.18;99863.81;252650;1104;115000;-66
2021/03/07 14:27:43;;;;;;;3.90;2.50;;;;;;;2.44;61.24;99855.66;254286;1105;114748;-65
2021/03/07 14:32:47;;;;;;;2.83;2.00;;;;;;;2.40;61.16;99855.20;254627;1105;115421;-66
2021/03/07 14:37:51;;;;;;;11.50;4.17;;;;;;;2.54;59.01;99843.05;253811;1105;115524;-65
2021/03/07 14:42:54;;;;;;;4.47;2.33;;;;;;;2.47;58.80;99847.39;254068;1104;115514;-66
2021/03/07 14:47:59;;;;;;;4.83;3.30;;;;;;;2.34;59.27;99855.91;254490;1105;115226;-66
2021/03/07 14:53:02;;;;;;;10.23;4.40;;;;;;;2.35;59.19;99874.15;252832;1104;116438;-67
2021/03/07 14:58:07;;;;;;;3.02;2.25;;;;;;;2.27;61.81;99863.69;252102;1103;115888;-65
2021/03/07 15:03:10;;;;;;;3.40;3.10;;;;;;;2.19;60.43;99858.50;252100;1105;117128;-65
2021/03/07 15:08:13;;;;;;;2.87;2.58;;;;;;;2.19;60.35;99841.90;252361;1104;114397;-65
2021/03/07 15:13:17;;;;;;;5.70;5.05;;;;;;;2.15;61.76;99833.55;253076;1104;116019;-64
2021/03/07 15:18:20;;;;;;;6.67;3.30;;;;;;;2.06;63.46;99836.44;252478;1105;116259;-66
2021/03/07 15:23:26;;;;;;;2.60;2.15;;;;;;;2.06;63.18;99837.26;251650;1105;116569;-63
2021/03/07 15:28:31;;;;;;;7.47;3.47;;;;;;;2.08;62.81;99816.87;253717;1104;115926;-68
2021/03/07 15:33:35;;;;;;;6.10;4.03;;;;;;;2.05;62.85;99824.29;252350;1104;117620;-68
2021/03/07 15:38:39;;;;;;;4.90;3.03;;;;;;;1.98;63.05;99817.11;252107;1105;116310;-64
2021/03/07 15:43:43;;;;;;;7.42;3.77;;;;;;;1.95;63.39;99806.12;252462;1105;116573;-66
2021/03/07 15:48:46;;;;;;;10.08;4.72;;;;;;;1.98;63.72;99803.95;252592;1105;116364;-63
2021/03/07 15:53:50;;;;;;;7.60;4.58;;;;;;;1.94;64.71;99801.86;251863;1105;116743;-65
2021/03/07 15:58:54;;;;;;;3.62;2.05;;;;;;;1.85;64.81;99803.73;252740;1105;116831;-64
2021/03/07 16:03:57;;;;;;;4.75;2.92;;;;;;;1.84;63.86;99796.02;253635;1105;115331;-63
2021/03/07 16:09:00;;;;;;;3.77;2.33;;;;;;;1.84;65.24;99807.34;253015;1105;115631;-64
2021/03/07 16:14:03;;;;;;;7.23;4.00;;;;;;;1.88;64.04;99792.86;252725;1105;115604;-65
2021/03/07 16:19:07;;;;;;;4.95;3.95;;;;;;;1.88;64.14;99789.41;254018;1104;115499;-65
2021/03/07 16:24:10;;;;;;;5.30;4.75;;;;;;;1.85;64.50;99781.88;254605;1104;116253;-63
2021/03/07 16:29:14;;;;;;;5.55;4.90;;;;;;;1.85;65.29;99776.62;254607;1105;115664;-64
2021/03/07 16:34:18;;;;;;;6.67;4.15;;;;;;;1.82;67.02;99774.38;254672;1104;116662;-65
2021/03/07 16:39:21;;;;;;;10.65;6.33;;;;;;;1.82;65.28;99782.27;254791;1105;117199;-64
2021/03/07 16:44:24;;;;;;;5.55;4.05;;;;;;;1.84;64.16;99769.73;254779;1104;116518;-65
2021/03/07 16:49:27;;;;;;;9.60;4.35;;;;;;;1.83;64.43;99768.12;254905;1105;115300;-64
2021/03/07 16:54:31;;;;;;;4.08;3.17;;;;;;;1.86;65.25;99779.08;254396;1105;115937;-65
2021/03/07 16:59:36;;;;;;;8.45;5.53;;;;;;;1.90;65.71;99779.55;254207;1105;115947;-65
2021/03/07 17:04:40;;;;;;;6.03;4.75;;;;;;;1.92;65.78;99790.70;252672;1104;115396;-64
2021/03/07 17:09:43;;;;;;;5.53;2.65;;;;;;;1.85;64.83;99779.25;252992;1105;116496;-62
2021/03/07 17:14:47;;;;;;;5.70;3.90;;;;;;;1.79;65.22;99777.36;252306;1105;115983;-63
2021/03/07 17:19:52;;;;;;;7.50;4.42;;;;;;;1.76;65.68;99775.90;252558;1105;115588;-63
2021/03/07 17:24:55;;;;;;;5.33;3.58;;;;;;;1.71;65.08;99791.38;253025;1105;115530;-63
2021/03/07 17:29:59;;;;;;;5.67;3.87;;;;;;;1.71;66.50;99791.38;252944;1105;115247;-64
2021/03/07 17:35:04;;;;;;;4.00;2.40;;;;;;;1.67;66.35;99793.53;252032;1105;116098;-63
2021/03/07 17:40:08;;;;;;;3.52;3.22;;;;;;;1.71;65.53;99793.19;252937;1104;115496;-65
2021/03/07 17:45:12;;;;;;;7.10;3.15;;;;;;;1.66;65.92;99794.52;251614;1105;115115;-63
2021/03/07 17:50:16;;;;;;;6.72;3.90;;;;;;;1.66;65.05;99784.02;252589;1105;114772;-63
2021/03/07 17:55:23;;;;;;;9.70;4.53;;;;;;;1.60;66.35;99787.34;252294;1104;114547;-64
2021/03/07 18:00:27;;;;;;;7.50;2.85;;;;;;;1.58;67.07;99781.44;251720;1105;115677;-62
2021/03/07 18:05:30;;;;;;;4.90;4.50;;;;;;;1.58;66.61;99786.70;251464;1105;114884;-67
2021/03/07 18:10:37;;;;;;;10.90;6.25;;;;;;;1.58;66.57;99783.25;251988;1105;116289;-66
2021/03/07 18:15:41;;;;;;;2.15;2.02;;;;;;;1.49;67.78;99771.19;252045;1104;115064;-64
2021/03/07 18:20:47;;;;;;;9.08;5.22;;;;;;;1.53;66.24;99764.59;253547;1104;114753;-65
2021/03/07 18:25:51;;;;;;;10.72;7.03;;;;;;;1.57;66.55;99774.55;253912;1105;115732;-64
2021/03/07 18:30:57;;;;;;;8.43;6.50;;;;;;;1.50;67.84;99762.31;253434;1104;116038;-64
2021/03/07 18:35:59;;;;;;;16.73;11.33;;;;;;;1.54;67.82;99759.13;253956;1104;115417;-63
2021/03/07 18:41:02;;;;;;;36.50;20.92;;;;;;;1.48;68.05;99761.67;253614;1105;117710;-64
2021/03/07 18:46:05;;;;;;;6.57;5.07;;;;;;;1.49;68.86;99756.24;252035;1105;119741;-64
2021/03/07 18:51:10;;;;;;;2.90;2.50;;;;;;;1.49;68.53;99755.42;254584;1105;116540;-65
2021/03/07 18:56:12;;;;;;;9.28;5.85;;;;;;;1.50;68.17;99759.69;252559;1105;117109;-66
2021/03/07 19:01:16;;;;;;;10.28;4.92;;;;;;;1.51;68.41;99753.44;254261;1105;122539;-63
2021/03/07 19:06:20;;;;;;;7.15;4.22;;;;;;;1.41;68.53;99758.92;254339;1104;114687;-65
2021/03/07 19:11:24;;;;;;;5.67;3.95;;;;;;;1.42;68.60;99759.73;252115;1105;117789;-64
2021/03/07 19:16:30;;;;;;;6.62;4.17;;;;;;;1.40;67.86;99754.66;252906;1105;117181;-66
2021/03/07 19:21:35;;;;;;;11.12;5.20;;;;;;;1.40;67.60;99749.41;253804;1104;115410;-68
2021/03/07 19:26:38;;;;;;;12.10;6.00;;;;;;;1.41;68.21;99756.30;252981;1105;116886;-63
2021/03/07 19:31:43;;;;;;;9.45;5.15;;;;;;;1.37;68.73;99755.00;252974;1104;116327;-67
2021/03/07 19:36:47;;;;;;;6.08;4.60;;;;;;;1.37;68.27;99748.94;252233;1105;116601;-68
2021/03/07 19:41:51;;;;;;;5.62;3.55;;;;;;;1.36;68.94;99756.00;252637;1105;115169;-68
2021/03/07 19:46:55;;;;;;;4.05;2.92;;;;;;;1.31;68.60;99746.02;252606;1104;118845;-68
2021/03/07 19:52:01;;;;;;;6.05;4.03;;;;;;;1.23;68.62;99753.12;251476;1105;115760;-67
2021/03/07 19:57:06;;;;;;;8.23;6.50;;;;;;;1.24;68.21;99754.75;252119;1105;117692;-67
2021/03/07 20:02:09;;;;;;;4.35;3.10;;;;;;;1.17;68.24;99751.21;252493;1105;116068;-68
2021/03/07 20:07:14;;;;;;;9.95;5.20;;;;;;;1.20;69.13;99743.81;251699;1105;116584;-68
2021/03/07 20:12:18;;;;;;;13.18;6.65;;;;;;;1.16;69.32;99745.14;251584;1105;117282;-66
2021/03/07 20:17:23;;;;;;;8.80;5.28;;;;;;;1.13;68.71;99739.42;252566;1105;116510;-68
2021/03/07 20:22:34;;;;;;;8.90;5.77;;;;;;;1.09;70.38;99728.45;253212;1105;115673;-68
2021/03/07 20:27:38;;;;;;;5.08;3.50;;;;;;;1.07;68.55;99730.42;251488;1105;116574;-67
2021/03/07 20:32:42;;;;;;;3.72;2.92;;;;;;;1.07;69.94;99743.55;254003;1104;117347;-64
2021/03/07 20:37:46;;;;;;;14.30;6.37;;;;;;;1.10;69.54;99750.27;252606;1105;117324;-66
2021/03/07 20:42:50;;;;;;;13.03;5.78;;;;;;;1.12;68.92;99759.61;253320;1105;116937;-67
2021/03/07 20:47:54;;;;;;;3.65;2.55;;;;;;;1.04;70.06;99757.02;255016;1104;117093;-67
2021/03/07 20:53:01;;;;;;;12.90;6.75;;;;;;;1.08;69.04;99752.24;254760;1105;115769;-68
2021/03/07 20:58:05;;;;;;;8.38;4.20;;;;;;;1.08;70.01;99765.37;254874;1103;116442;-67
2021/03/07 21:03:08;;;;;;;6.33;4.67;;;;;;;1.03;69.24;99749.31;254987;1104;116180;-68
2021/03/07 21:08:26;;;;;;;5.80;3.75;;;;;;;1.06;71.01;99759.47;253820;1105;116057;-64
2021/03/07 21:13:29;;;;;;;10.40;6.45;;;;;;;1.06;69.20;99772.59;253747;1105;116424;-64
2021/03/07 21:18:33;;;;;;;10.90;5.83;;;;;;;1.00;69.09;99761.79;251904;1105;116900;-66
2021/03/07 21:23:37;;;;;;;14.40;7.53;;;;;;;0.94;70.69;99754.60;251537;1105;117175;-66
2021/03/07 21:28:40;;;;;;;6.95;4.87;;;;;;;0.89;72.23;99743.02;253640;1104;116586;-63
2021/03/07 21:33:45;;;;;;;12.33;6.12;;;;;;;0.84;73.04;99755.83;252048;1105;117996;-64
2021/03/07 21:38:49;;;;;;;11.73;5.85;;;;;;;0.78;74.15;99752.07;252729;1104;117320;-67
2021/03/07 21:43:54;;;;;;;33.63;8.60;;;;;;;0.70;75.79;99759.97;253266;1105;115290;-63
2021/03/07 21:48:58;;;;;;;9.77;7.40;;;;;;;0.68;75.62;99769.81;252670;1105;116239;-64
2021/03/07 21:54:03;;;;;;;12.45;7.83;;;;;;;0.65;75.00;99778.84;252612;1105;115310;-66
2021/03/07 21:59:08;;;;;;;13.38;9.03;;;;;;;0.76;73.54;99776.84;252533;1105;114707;-63
2021/03/07 22:04:12;;;;;;;13.32;7.80;;;;;;;0.74;74.52;99784.88;252338;1105;115587;-68
2021/03/07 22:09:17;;;;;;;29.05;15.55;;;;;;;0.71;76.99;99793.09;252938;1104;115314;-63
2021/03/07 22:14:22;;;;;;;23.10;11.48;;;;;;;0.62;77.48;99783.61;251524;1105;115131;-64
2021/03/07 22:19:26;;;;;;;15.55;8.98;;;;;;;0.60;78.17;99778.56;252925;1105;114897;-67
2021/03/07 22:24:30;;;;;;;19.10;9.38;;;;;;;0.64;77.93;99774.58;252654;1105;115727;-66
2021/03/07 22:29:34;;;;;;;14.20;7.95;;;;;;;0.56;78.80;99779.06;252380;1105;114802;-64
2021/03/07 22:34:37;;;;;;;19.45;10.53;;;;;;;0.62;77.76;99788.85;252949;1105;115270;-64
2021/03/07 22:39:44;;;;;;;15.27;7.90;;;;;;;0.63;78.81;99774.75;252875;1105;115613;-63
2021/03/07 22:44:47;;;;;;;11.78;7.17;;;;;;;0.58;78.55;99782.34;254219;1105;119133;-64
2021/03/07 22:49:51;;;;;;;18.87;10.38;;;;;;;0.64;78.91;99774.58;254922;1105;115945;-67
2021/03/07 22:55:00;;;;;;;12.78;6.78;;;;;;;0.58;78.83;99777.91;254701;1103;115604;-68
2021/03/07 23:00:10;;;;;;;18.30;8.87;;;;;;;0.50;79.75;99777.92;254552;1105;115009;-64
2021/03/07 23:05:14;;;;;;;20.70;9.65;;;;;;;0.45;79.62;99782.86;254641;1104;115904;-62
2021/03/07 23:10:18;;;;;;;20.68;9.18;;;;;;;0.49;80.09;99772.84;254481;1105;114743;-63
2021/03/07 23:15:23;;;;;;;11.55;6.70;;;;;;;0.47;79.44;99773.02;254029;1105;115755;-67
2021/03/07 23:20:28;;;;;;;17.05;9.93;;;;;;;0.41;79.43;99771.06;253776;1104;115350;-65
2021/03/07 23:25:34;;;;;;;14.75;9.55;;;;;;;0.45;80.47;99767.13;253784;1105;115219;-66